createdAt,value
2023-04-16T09:38:50.067Z,10.50
2023-04-16T09:39:23.384Z,10.50
2023-04-16T09:40:03.804Z,10.50
2023-04-16T09:40:35.800Z,10.50
2023-04-16T09:41:08.761Z,10.50
2023-04-16T09:41:40.909Z,10.50
2023-04-16T09:42:14.025Z,10.40
2023-04-16T09:42:45.940Z,10.50
2023-04-16T09:43:18.939Z,10.40
2023-04-16T09:43:58.048Z,10.40
2023-04-16T09:44:39.214Z,10.50
2023-04-16T09:45:11.354Z,10.50
2023-04-16T09:45:49.633Z,10.50
2023-04-16T09:46:53.764Z,10.50
2023-04-16T09:47:37.900Z,10.50
2023-04-16T09:48:09.667Z,10.40
2023-04-16T09:48:44.399Z,10.50
2023-04-16T09:49:18.630Z,12.10
2023-04-16T09:50:26.595Z,10.60
2023-04-16T09:50:59.780Z,11.30
2023-04-16T09:52:19.916Z,10.60
2023-04-16T09:52:51.868Z,10.60
2023-04-16T09:53:42.397Z,10.60
2023-04-16T09:54:14.240Z,10.60
2023-04-16T09:55:27.829Z,10.70
2023-04-16T09:56:33.336Z,10.70
2023-04-16T09:57:38.965Z,10.80
2023-04-16T09:58:43.065Z,10.80
2023-04-16T09:59:19.342Z,10.90
2023-04-16T10:00:01.652Z,10.90
2023-04-16T10:00:33.431Z,10.90
2023-04-16T10:01:12.783Z,10.90
2023-04-16T10:01:47.099Z,10.90
2023-04-16T10:03:06.783Z,10.90
2023-04-16T10:03:40.583Z,10.90
2023-04-16T10:04:16.252Z,10.90
2023-04-16T10:04:52.973Z,10.90
2023-04-16T10:06:07.917Z,11.00
2023-04-16T10:06:39.711Z,10.90
2023-04-16T10:07:12.249Z,11.00
2023-04-16T10:07:44.074Z,11.10
2023-04-16T10:08:17.249Z,11.10
2023-04-16T10:09:23.047Z,11.10
2023-04-16T10:09:55.886Z,11.10
2023-04-16T10:10:28.364Z,11.10
2023-04-16T10:11:00.943Z,11.10
2023-04-16T10:11:33.038Z,11.10
2023-04-16T10:12:06.102Z,11.10
2023-04-16T10:13:17.428Z,12.80
2023-04-16T10:13:49.759Z,11.20
2023-04-16T10:14:21.569Z,11.20
2023-04-16T10:14:53.315Z,11.20
2023-04-16T10:15:28.265Z,11.30
2023-04-16T10:16:33.715Z,11.40
2023-04-16T10:17:39.149Z,11.40
2023-04-16T10:18:48.022Z,11.40
2023-04-16T10:20:26.820Z,11.40
2023-04-16T10:21:33.829Z,11.50
2023-04-16T10:22:06.217Z,11.50
2023-04-16T10:23:44.110Z,11.40
2023-04-16T10:24:18.042Z,11.50
2023-04-16T10:24:52.024Z,11.50
2023-04-16T10:25:25.220Z,11.50
2023-04-16T10:26:31.104Z,11.60
2023-04-16T10:27:36.899Z,11.60
2023-04-16T10:28:10.238Z,11.60
2023-04-16T10:28:46.034Z,11.60
2023-04-16T10:29:19.783Z,11.60
2023-04-16T10:30:25.133Z,11.60
2023-04-16T10:31:05.694Z,11.70
2023-04-16T10:31:39.647Z,11.70
2023-04-16T10:32:12.865Z,11.70
2023-04-16T10:32:46.583Z,11.70
2023-04-16T10:33:27.176Z,11.70
2023-04-16T10:33:59.540Z,11.60
2023-04-16T10:34:32.061Z,11.70
2023-04-16T10:35:04.727Z,11.70
2023-04-16T10:35:40.413Z,11.70
2023-04-16T10:36:16.410Z,16.30
2023-04-16T10:36:51.123Z,13.60
2023-04-16T10:37:32.457Z,11.40
2023-04-16T10:38:24.334Z,11.70
2023-04-16T10:39:00.704Z,13.00
2023-04-16T10:39:39.114Z,11.80
2023-04-16T10:40:27.258Z,11.20
2023-04-16T10:41:06.409Z,11.80
2023-04-16T10:41:38.760Z,11.60
2023-04-16T10:42:13.088Z,11.50
2023-04-16T10:43:01.518Z,11.90
2023-04-16T10:43:40.641Z,11.90
2023-04-16T10:44:12.840Z,11.90
2023-04-16T10:44:49.216Z,11.90
2023-04-16T10:45:26.055Z,11.90
2023-04-16T10:45:57.915Z,12.00
2023-04-16T10:46:34.648Z,12.00
2023-04-16T10:47:13.862Z,12.00
2023-04-16T10:47:45.780Z,12.00
2023-04-16T10:48:20.421Z,12.90
2023-04-16T10:48:59.784Z,13.00
2023-04-16T10:49:31.567Z,12.00
2023-04-16T10:50:16.331Z,12.00
2023-04-16T10:50:58.710Z,12.00
2023-04-16T10:51:34.967Z,12.00
2023-04-16T10:52:12.121Z,12.00
2023-04-16T10:52:43.968Z,12.10
2023-04-16T10:53:27.392Z,12.10
2023-04-16T10:54:21.486Z,12.10
2023-04-16T10:54:55.641Z,12.10
2023-04-16T10:55:28.021Z,12.10
2023-04-16T10:56:15.284Z,12.20
2023-04-16T10:56:47.424Z,12.10
2023-04-16T10:57:20.528Z,12.20
2023-04-16T10:57:53.905Z,13.20
2023-04-16T10:58:30.227Z,12.20
2023-04-16T10:59:06.130Z,12.20
2023-04-16T10:59:39.613Z,12.20
2023-04-16T11:00:23.480Z,12.20
2023-04-16T11:00:55.250Z,12.30
2023-04-16T11:01:41.872Z,13.10
2023-04-16T11:02:16.292Z,12.30
2023-04-16T11:02:52.557Z,12.30
2023-04-16T11:03:24.652Z,12.30
2023-04-16T11:03:58.233Z,12.30
2023-04-16T11:04:37.999Z,12.30
2023-04-16T11:05:09.946Z,12.30
2023-04-16T11:05:47.325Z,13.20
2023-04-16T11:06:26.490Z,12.40
2023-04-16T11:07:19.536Z,12.80
2023-04-16T11:07:51.475Z,12.40
2023-04-16T11:08:24.696Z,12.40
2023-04-16T11:08:57.879Z,13.10
2023-04-16T11:09:50.969Z,12.50
2023-04-16T11:10:22.767Z,12.50
2023-04-16T11:10:58.549Z,12.50
2023-04-16T11:11:39.527Z,12.50
2023-04-16T11:12:22.284Z,12.50
2023-04-16T11:12:56.074Z,12.50
2023-04-16T11:13:28.460Z,12.50
2023-04-16T11:14:00.988Z,12.50
2023-04-16T11:14:33.818Z,12.80
2023-04-16T11:15:14.838Z,12.70
2023-04-16T11:15:48.585Z,12.60
2023-04-16T11:16:20.502Z,16.40
2023-04-16T11:16:52.463Z,13.30
2023-04-16T11:17:31.664Z,12.60
2023-04-16T11:18:04.060Z,13.40
2023-04-16T11:18:36.903Z,12.60
2023-04-16T11:19:18.007Z,12.60
2023-04-16T11:19:50.560Z,12.70
2023-04-16T11:20:31.633Z,12.70
2023-04-16T11:21:08.651Z,12.70
2023-04-16T11:21:40.545Z,12.70
2023-04-16T11:22:15.223Z,12.70
2023-04-16T11:22:47.732Z,13.30
2023-04-16T11:23:19.531Z,12.70
2023-04-16T11:23:53.305Z,13.40
2023-04-16T11:24:30.730Z,12.70
2023-04-16T11:25:02.918Z,12.70
2023-04-16T11:25:34.706Z,12.70
2023-04-16T11:26:19.385Z,12.80
2023-04-16T11:26:54.141Z,12.80
2023-04-16T11:27:26.354Z,13.20
2023-04-16T11:28:10.303Z,12.80
2023-04-16T11:28:42.183Z,12.80
2023-04-16T11:29:18.399Z,13.70
2023-04-16T11:30:09.449Z,12.80
2023-04-16T11:30:41.661Z,12.80
2023-04-16T11:31:13.570Z,12.80
2023-04-16T11:31:55.382Z,12.90
2023-04-16T11:32:28.122Z,12.90
2023-04-16T11:33:11.702Z,14.20
2023-04-16T11:33:43.817Z,12.90
2023-04-16T11:34:20.393Z,12.90
2023-04-16T11:34:52.354Z,12.90
2023-04-16T11:35:24.259Z,13.80
2023-04-16T11:35:58.991Z,13.90
2023-04-16T11:36:49.984Z,13.80
2023-04-16T11:37:32.997Z,13.00
2023-04-16T11:38:07.208Z,13.00
2023-04-16T11:38:41.083Z,13.00
2023-04-16T11:39:13.027Z,13.00
2023-04-16T11:39:49.389Z,13.50
2023-04-16T11:40:21.230Z,14.10
2023-04-16T11:40:54.040Z,13.00
2023-04-16T11:41:25.875Z,13.10
2023-04-16T11:41:57.781Z,13.00
2023-04-16T11:42:33.008Z,14.10
2023-04-16T11:43:16.173Z,13.10
2023-04-16T11:43:48.005Z,13.10
2023-04-16T11:44:20.380Z,13.70
2023-04-16T11:44:54.296Z,13.10
2023-04-16T11:45:26.112Z,14.00
2023-04-16T11:46:16.710Z,13.10
2023-04-16T11:46:56.249Z,13.20
2023-04-16T11:47:29.326Z,13.80
2023-04-16T11:48:01.226Z,13.20
2023-04-16T11:48:52.492Z,13.70
2023-04-16T11:49:30.936Z,13.20
2023-04-16T11:50:25.398Z,13.20
2023-04-16T11:50:58.149Z,13.30
2023-04-16T11:51:30.343Z,12.80
2023-04-16T11:52:02.104Z,13.70
2023-04-16T11:52:33.994Z,14.10
2023-04-16T11:53:06.348Z,14.40
2023-04-16T11:53:53.093Z,13.30
2023-04-16T11:54:25.617Z,13.30
2023-04-16T11:54:58.680Z,13.40
2023-04-16T11:55:31.071Z,13.30
2023-04-16T11:56:04.670Z,13.90
2023-04-16T11:56:47.730Z,13.50
2023-04-16T11:57:26.636Z,13.80
2023-04-16T11:58:12.267Z,13.90
2023-04-16T11:58:44.483Z,13.40
2023-04-16T11:59:22.815Z,14.00
2023-04-16T12:00:02.341Z,14.00
2023-04-16T12:00:45.074Z,13.50
2023-04-16T12:01:21.436Z,13.70
2023-04-16T12:01:57.594Z,15.00
2023-04-16T12:02:39.945Z,15.00
2023-04-16T12:03:12.190Z,13.50
2023-04-16T12:03:50.070Z,13.50
2023-04-16T12:04:30.916Z,13.60
2023-04-16T12:05:25.499Z,14.60
2023-04-16T12:06:08.479Z,13.60
2023-04-16T12:06:40.756Z,13.60
2023-04-16T12:07:14.465Z,13.60
2023-04-16T12:07:46.570Z,13.60
2023-04-16T12:08:32.835Z,14.10
2023-04-16T12:09:29.759Z,13.70
2023-04-16T12:10:08.654Z,13.70
2023-04-16T12:10:54.739Z,13.70
2023-04-16T12:11:42.748Z,14.50
2023-04-16T12:12:30.422Z,13.80
2023-04-16T12:13:16.802Z,13.80
2023-04-16T12:14:11.496Z,15.00
2023-04-16T12:14:53.007Z,13.80
2023-04-16T12:15:44.292Z,15.10
2023-04-16T12:16:23.646Z,14.00
2023-04-16T12:16:58.993Z,14.20
2023-04-16T12:17:35.376Z,14.10
2023-04-16T12:18:08.167Z,14.60
2023-04-16T12:19:00.436Z,13.90
2023-04-16T12:19:32.220Z,14.00
2023-04-16T12:20:15.423Z,13.90
2023-04-16T12:20:53.122Z,13.90
2023-04-16T12:21:24.859Z,14.00
2023-04-16T12:22:00.779Z,14.00
2023-04-16T12:22:36.739Z,14.00
2023-04-16T12:23:09.835Z,14.00
2023-04-16T12:23:42.501Z,14.00
2023-04-16T12:24:24.562Z,14.00
2023-04-16T12:24:59.334Z,14.00
2023-04-16T12:25:31.468Z,14.10
2023-04-16T12:26:12.234Z,14.90
2023-04-16T12:26:46.719Z,14.00
2023-04-16T12:27:18.494Z,14.30
2023-04-16T12:27:55.925Z,15.10
2023-04-16T12:28:33.991Z,14.40
2023-04-16T12:29:16.151Z,16.40
2023-04-16T12:30:03.781Z,14.10
2023-04-16T12:30:51.252Z,14.40
2023-04-16T12:31:38.081Z,14.40
2023-04-16T12:32:23.290Z,14.90
2023-04-16T12:33:15.949Z,14.20
2023-04-16T12:34:02.431Z,14.10
2023-04-16T12:34:51.671Z,14.20
2023-04-16T12:35:34.236Z,17.30
2023-04-16T12:36:19.743Z,14.30
2023-04-16T12:37:09.591Z,14.20
2023-04-16T12:37:41.634Z,14.20
2023-04-16T12:38:15.233Z,14.20
2023-04-16T12:38:47.053Z,14.30
2023-04-16T12:39:18.807Z,14.20
2023-04-16T12:39:50.820Z,14.60
2023-04-16T12:40:22.531Z,14.90
2023-04-16T12:40:57.000Z,15.20
2023-04-16T12:41:29.185Z,14.80
2023-04-16T12:42:01.102Z,14.30
2023-04-16T12:42:38.551Z,14.30
2023-04-16T12:43:11.096Z,14.30
2023-04-16T12:43:43.005Z,14.30
2023-04-16T12:44:17.846Z,15.00
2023-04-16T12:44:49.830Z,14.40
2023-04-16T12:45:22.634Z,14.40
2023-04-16T12:45:54.508Z,14.70
2023-04-16T12:46:26.287Z,14.70
2023-04-16T12:46:58.071Z,16.80
2023-04-16T12:47:33.191Z,14.40
2023-04-16T12:48:05.263Z,14.60
2023-04-16T12:48:37.816Z,14.40
2023-04-16T12:49:13.392Z,16.90
2023-04-16T12:49:45.683Z,14.40
2023-04-16T12:50:17.973Z,15.50
2023-04-16T12:50:49.800Z,15.10
2023-04-16T12:51:22.944Z,14.60
2023-04-16T12:51:54.733Z,14.50
2023-04-16T12:52:27.085Z,14.40
2023-04-16T12:52:59.668Z,14.50
2023-04-16T12:53:31.476Z,14.50
2023-04-16T12:54:05.443Z,14.50
2023-04-16T12:54:37.223Z,14.50
2023-04-16T12:55:09.666Z,14.60
2023-04-16T12:55:41.959Z,14.60
2023-04-16T12:56:16.753Z,15.00
2023-04-16T12:56:48.552Z,15.70
2023-04-16T12:57:20.481Z,14.60
2023-04-16T12:57:55.733Z,15.20
2023-04-16T12:58:27.478Z,14.60
2023-04-16T12:58:59.317Z,14.60
2023-04-16T12:59:31.812Z,14.60
2023-04-16T13:00:06.257Z,14.60
2023-04-16T13:00:40.858Z,14.60
2023-04-16T13:01:12.762Z,15.30
2023-04-16T13:01:44.672Z,14.70
2023-04-16T13:02:16.665Z,15.20
2023-04-16T13:02:48.768Z,18.80
2023-04-16T13:03:21.636Z,14.70
2023-04-16T13:03:53.816Z,15.10
2023-04-16T13:04:26.211Z,14.70
2023-04-16T13:04:58.387Z,14.70
2023-04-16T13:05:30.416Z,14.70
2023-04-16T13:06:02.881Z,15.20
2023-04-16T13:06:36.746Z,14.70
2023-04-16T13:07:08.590Z,15.40
2023-04-16T13:07:41.332Z,14.70
2023-04-16T13:08:13.177Z,17.60
2023-04-16T13:08:45.864Z,15.20
2023-04-16T13:09:19.224Z,14.80
2023-04-16T13:09:51.385Z,14.80
2023-04-16T13:10:23.488Z,15.00
2023-04-16T13:10:55.559Z,14.80
2023-04-16T13:11:27.411Z,15.00
2023-04-16T13:11:59.203Z,14.80
2023-04-16T13:12:32.593Z,14.80
2023-04-16T13:13:04.397Z,14.80
2023-04-16T13:13:36.570Z,15.00
2023-04-16T13:14:40.623Z,14.80
2023-04-16T13:15:12.416Z,14.90
2023-04-16T13:15:44.248Z,15.30
2023-04-16T13:16:16.444Z,14.90
2023-04-16T13:16:48.285Z,15.40
2023-04-16T13:17:20.031Z,14.90
2023-04-16T13:17:51.934Z,14.90
2023-04-16T13:18:24.576Z,14.90
2023-04-16T13:18:56.312Z,14.90
2023-04-16T13:19:28.102Z,14.90
2023-04-16T13:19:59.886Z,14.90
2023-04-16T13:20:32.924Z,14.90
2023-04-16T13:21:04.840Z,14.90
2023-04-16T13:21:36.755Z,14.90
2023-04-16T13:22:10.041Z,15.00
2023-04-16T13:22:41.854Z,15.00
2023-04-16T13:23:13.953Z,15.00
2023-04-16T13:23:45.830Z,15.00
2023-04-16T13:24:17.700Z,15.00
2023-04-16T13:24:49.801Z,15.00
2023-04-16T13:25:59.579Z,15.10
2023-04-16T13:34:36.987Z,15.40
2023-04-16T13:35:10.771Z,15.30
2023-04-16T13:35:42.613Z,15.30
2023-04-16T13:36:14.606Z,15.30
2023-04-16T13:36:46.426Z,15.40
2023-04-16T13:37:18.197Z,15.30
2023-04-16T13:37:49.939Z,15.30
2023-04-16T13:38:27.495Z,15.60
2023-04-16T13:39:31.594Z,15.30
2023-04-16T13:40:07.084Z,15.30
2023-04-16T13:40:38.959Z,15.30
2023-04-16T13:41:10.753Z,15.20
2023-04-16T13:41:43.031Z,15.30
2023-04-16T13:42:18.932Z,15.30
2023-04-16T13:42:52.604Z,15.20
2023-04-16T13:43:24.391Z,15.10
2023-04-16T13:43:56.216Z,15.20
2023-04-16T13:44:28.024Z,15.20
2023-04-16T13:44:59.899Z,15.30
2023-04-16T13:45:31.734Z,15.30
2023-04-16T13:46:06.505Z,15.20
2023-04-16T13:52:18.246Z,15.50
2023-04-16T13:52:50.018Z,15.50
2023-04-16T13:53:22.067Z,15.40
2023-04-16T13:53:55.941Z,15.50
2023-04-16T13:54:27.680Z,15.40
2023-04-16T13:55:00.233Z,15.40
2023-04-16T13:55:32.213Z,15.40
2023-04-16T13:56:07.038Z,15.40
2023-04-16T13:56:45.027Z,15.40
2023-04-16T13:57:20.686Z,15.40
2023-04-16T13:57:53.275Z,15.30
2023-04-16T13:58:25.766Z,15.40
2023-04-16T13:58:57.545Z,15.40
2023-04-16T13:59:29.549Z,15.50
2023-04-16T14:00:01.475Z,15.40
2023-04-16T14:00:33.471Z,15.40
2023-04-16T14:01:05.393Z,15.40
2023-04-16T14:01:37.461Z,15.40
2023-04-16T14:02:13.000Z,15.40
2023-04-16T14:02:48.666Z,15.60
2023-04-16T14:03:20.825Z,15.40
2023-04-16T14:03:52.837Z,15.50
2023-04-16T14:04:24.846Z,15.50
2023-04-16T14:04:56.701Z,15.50
2023-04-16T14:05:28.479Z,15.50
2023-04-16T14:06:00.286Z,15.40
2023-04-16T14:06:33.001Z,15.40
2023-04-16T14:07:04.764Z,15.50
2023-04-16T14:07:37.598Z,15.50
2023-04-16T14:08:10.072Z,15.50
2023-04-16T14:08:41.784Z,15.50
2023-04-16T14:09:13.507Z,15.50
2023-04-16T14:09:45.414Z,15.50
2023-04-16T14:10:17.458Z,15.50
2023-04-16T14:10:49.245Z,15.50
2023-04-16T14:11:23.966Z,15.40
2023-04-16T14:11:58.744Z,15.50
2023-04-16T14:12:31.529Z,15.50
2023-04-16T14:13:09.385Z,15.50
2023-04-16T14:13:41.851Z,15.50
2023-04-16T14:14:13.656Z,15.60
2023-04-16T14:14:46.040Z,15.50
2023-04-16T14:15:20.870Z,15.50
2023-04-16T14:15:55.731Z,15.50
2023-04-16T14:16:27.831Z,15.50
2023-04-16T14:16:59.749Z,15.60
2023-04-16T14:17:37.700Z,15.60
2023-04-16T14:18:09.849Z,18.70
2023-04-16T14:18:42.450Z,15.60
2023-04-16T14:19:14.275Z,15.60
2023-04-16T14:19:46.061Z,15.60
2023-04-16T14:20:18.024Z,15.60
2023-04-16T14:20:49.846Z,15.60
2023-04-16T14:21:24.335Z,15.60
2023-04-16T14:21:56.131Z,15.60
2023-04-16T14:22:27.913Z,15.70
2023-04-16T14:22:59.626Z,15.70
2023-04-16T14:23:34.580Z,15.60
2023-04-16T14:24:06.843Z,15.60
2023-04-16T14:24:41.235Z,15.60
2023-04-16T14:25:16.034Z,15.60
2023-04-16T14:25:48.246Z,15.60
2023-04-16T14:26:20.670Z,15.50
2023-04-16T14:26:52.517Z,15.60
2023-04-16T14:27:24.383Z,13.40
2023-04-16T14:27:56.244Z,15.60
2023-04-16T14:28:30.155Z,15.70
2023-04-16T14:29:06.227Z,15.70
2023-04-16T14:29:38.201Z,15.70
2023-04-16T14:30:10.268Z,15.80
2023-04-16T14:30:42.071Z,15.60
2023-04-16T14:31:13.893Z,15.70
2023-04-16T14:31:49.071Z,15.70
2023-04-16T14:32:21.488Z,15.60
2023-04-16T14:32:56.430Z,15.60
2023-04-16T14:33:33.953Z,15.70
2023-04-16T14:34:05.890Z,15.60
2023-04-16T14:34:43.711Z,15.70
2023-04-16T14:35:16.016Z,15.70
2023-04-16T14:35:47.837Z,15.70
2023-04-16T14:36:22.266Z,15.60
2023-04-16T14:36:54.700Z,13.40
2023-04-16T14:37:26.583Z,15.60
2023-04-16T14:38:01.354Z,15.70
2023-04-16T14:38:33.307Z,15.70
2023-04-16T14:39:05.106Z,15.70
2023-04-16T14:39:38.984Z,15.70
2023-04-16T14:40:14.006Z,15.60
2023-04-16T14:40:48.949Z,15.60
2023-04-16T14:41:20.918Z,15.60
2023-04-16T14:41:55.346Z,15.70
2023-04-16T14:42:27.726Z,15.70
2023-04-16T14:42:59.496Z,15.70
2023-04-16T14:43:31.347Z,15.70
2023-04-16T14:44:06.797Z,15.60
2023-04-16T14:44:38.661Z,15.70
2023-04-16T14:45:11.076Z,15.70
2023-04-16T14:45:43.167Z,15.70
2023-04-16T14:46:17.664Z,15.70
2023-04-16T14:46:49.701Z,15.70
2023-04-16T14:47:24.250Z,15.70
2023-04-16T14:47:56.106Z,15.70
2023-04-16T14:48:27.882Z,15.80
2023-04-16T14:48:59.775Z,14.90
2023-04-16T14:49:33.327Z,15.70
2023-04-16T14:50:06.231Z,15.70
2023-04-16T14:50:43.995Z,15.70
2023-04-16T14:51:16.036Z,17.30
2023-04-16T14:51:48.056Z,15.60
2023-04-16T14:52:19.879Z,15.90
2023-04-16T14:52:53.664Z,15.70
2023-04-16T14:53:25.540Z,15.70
2023-04-16T14:53:57.507Z,15.70
2023-04-16T14:54:29.332Z,15.70
2023-04-16T14:55:01.166Z,15.70
2023-04-16T14:55:38.395Z,15.70
2023-04-16T14:56:13.680Z,15.60
2023-04-16T14:56:47.402Z,15.70
2023-04-16T14:57:19.406Z,15.60
2023-04-16T14:57:51.266Z,15.70
2023-04-16T14:58:22.996Z,15.80
2023-04-16T14:58:57.708Z,15.80
2023-04-16T14:59:32.790Z,15.60
2023-04-16T15:00:08.341Z,15.70
2023-04-16T15:00:48.992Z,15.70
2023-04-16T15:01:24.063Z,15.70
2023-04-16T15:01:57.124Z,15.60
2023-04-16T15:02:29.073Z,15.70
2023-04-16T15:03:01.075Z,15.60
2023-04-16T15:03:39.224Z,15.70
2023-04-16T15:04:11.379Z,15.70
2023-04-16T15:04:43.238Z,15.70
2023-04-16T15:05:15.146Z,15.70
2023-04-16T15:05:55.452Z,15.70
2023-04-16T15:06:33.966Z,15.60
2023-04-16T15:07:11.881Z,15.70
2023-04-16T15:07:44.997Z,15.70
2023-04-16T15:08:16.827Z,15.90
2023-04-16T15:08:48.568Z,15.60
2023-04-16T15:09:26.490Z,15.70
2023-04-16T15:09:58.696Z,15.70
2023-04-16T15:10:30.588Z,15.70
2023-04-16T15:11:03.126Z,15.70
2023-04-16T15:11:37.510Z,15.80
2023-04-16T15:12:09.263Z,15.70
2023-04-16T15:12:41.178Z,15.70
2023-04-16T15:13:12.953Z,15.70
2023-04-16T15:13:44.718Z,15.70
2023-04-16T15:14:16.993Z,16.10
2023-04-16T15:14:48.721Z,15.70
2023-04-16T15:15:20.603Z,15.70
2023-04-16T15:15:55.606Z,15.70
2023-04-16T15:16:30.151Z,15.80
2023-04-16T15:17:02.057Z,15.90
2023-04-16T15:17:39.806Z,15.70
2023-04-16T15:18:11.727Z,15.70
2023-04-16T15:18:46.674Z,15.70
2023-04-16T15:19:18.612Z,15.70
2023-04-16T15:19:59.384Z,15.70
2023-04-16T15:20:34.468Z,15.70
2023-04-16T15:21:10.595Z,15.70
2023-04-16T15:21:48.698Z,15.70
2023-04-16T15:22:20.725Z,15.70
2023-04-16T15:22:52.477Z,15.70
2023-04-16T15:23:26.940Z,15.70
2023-04-16T15:24:04.715Z,15.70
2023-04-16T15:24:42.392Z,15.60
2023-04-16T15:25:22.772Z,15.70
2023-04-16T15:26:00.760Z,15.70
2023-04-16T15:26:32.509Z,15.70
2023-04-16T15:27:07.165Z,15.70
2023-04-16T15:27:44.799Z,15.70
2023-04-16T15:28:19.423Z,15.70
2023-04-16T15:28:51.166Z,15.70
2023-04-16T15:29:35.775Z,15.70
2023-04-16T15:30:26.091Z,12.30
2023-04-16T15:31:01.425Z,15.70
2023-04-16T15:31:48.175Z,15.60
2023-04-16T15:32:23.009Z,15.70
2023-04-16T15:32:57.689Z,15.80
2023-04-16T15:33:29.512Z,15.70
2023-04-16T15:34:01.406Z,15.70
2023-04-16T15:34:42.148Z,15.70
2023-04-16T15:35:19.781Z,15.70
2023-04-16T15:36:00.246Z,15.70
2023-04-16T15:36:32.587Z,16.30
2023-04-16T15:37:07.403Z,15.70
2023-04-16T15:37:39.213Z,15.70
2023-04-16T15:38:13.677Z,15.70
2023-04-16T15:38:45.794Z,16.00
2023-04-16T15:39:17.575Z,15.70
2023-04-16T15:39:52.275Z,15.70
2023-04-16T15:40:25.579Z,15.70
2023-04-16T15:41:06.196Z,15.70
2023-04-16T15:41:50.208Z,15.70
2023-04-16T15:42:31.777Z,15.70
2023-04-16T15:43:07.288Z,15.70
2023-04-16T15:43:39.199Z,15.70
2023-04-16T15:44:13.889Z,15.70
2023-04-16T15:44:45.680Z,15.70
2023-04-16T15:45:23.292Z,15.80
2023-04-16T15:46:00.826Z,15.70
2023-04-16T15:46:32.676Z,15.70
2023-04-16T15:47:14.500Z,15.70
2023-04-16T15:47:52.469Z,15.70
2023-04-16T15:48:27.790Z,15.70
2023-04-16T15:49:02.448Z,15.70
2023-04-16T15:49:37.244Z,15.70
2023-04-16T15:50:09.539Z,15.70
2023-04-16T15:50:51.046Z,15.70
2023-04-16T15:51:29.521Z,15.70
2023-04-16T15:52:13.475Z,15.70
2023-04-16T15:52:48.331Z,15.70
2023-04-16T15:53:23.319Z,15.70
2023-04-16T15:54:01.284Z,15.70
2023-04-16T15:55:11.747Z,15.70
2023-04-16T15:55:52.551Z,15.70
2023-04-16T15:56:48.294Z,15.70
2023-04-16T15:57:38.697Z,15.70
2023-04-16T15:58:19.321Z,15.70
2023-04-16T15:59:34.581Z,15.70
2023-04-16T16:00:41.080Z,15.70
2023-04-16T16:02:55.213Z,15.70
2023-04-16T16:03:36.785Z,15.70
2023-04-16T16:04:35.458Z,15.80
2023-04-16T16:06:07.531Z,15.70
2023-04-16T16:06:59.730Z,15.70
2023-04-16T16:07:47.293Z,15.80
2023-04-16T16:08:25.227Z,15.80
2023-04-16T16:09:18.347Z,15.80
2023-04-16T16:10:02.024Z,15.70
2023-04-16T16:10:48.702Z,15.70
2023-04-16T16:11:35.017Z,15.80
2023-04-16T16:12:18.765Z,15.80
2023-04-16T16:12:53.670Z,15.80
2023-04-16T16:13:40.397Z,15.70
2023-04-16T16:14:30.492Z,15.80
2023-04-16T16:15:23.438Z,15.80
2023-04-16T16:15:58.497Z,15.80
2023-04-16T16:16:37.133Z,15.80
2023-04-16T16:17:14.813Z,15.80
2023-04-16T16:17:53.503Z,15.80
2023-04-16T16:18:43.500Z,15.90
2023-04-16T16:19:18.676Z,15.80
2023-04-16T16:20:16.103Z,15.80
2023-04-16T16:20:57.462Z,15.80
2023-04-16T16:22:05.242Z,15.80
2023-04-16T16:23:07.678Z,15.80
2023-04-16T16:23:56.693Z,15.80
2023-04-16T16:24:49.045Z,15.80
2023-04-16T16:25:33.275Z,15.80
2023-04-16T16:26:19.821Z,16.10
2023-04-16T16:26:57.533Z,15.80
2023-04-16T16:27:44.888Z,15.80
2023-04-16T16:28:50.734Z,15.80
2023-04-16T16:29:58.803Z,15.80
2023-04-16T16:31:01.490Z,15.80
2023-04-16T16:31:42.175Z,15.80
2023-04-16T16:32:52.523Z,15.80
2023-04-16T16:33:48.913Z,15.80
2023-04-16T16:34:23.582Z,15.80
2023-04-16T16:35:52.903Z,15.80
2023-04-16T16:36:32.320Z,15.80
2023-04-16T16:37:04.986Z,15.80
2023-04-16T16:37:43.854Z,15.80
2023-04-16T16:38:21.176Z,15.80
2023-04-16T16:38:52.992Z,15.80
2023-04-16T16:39:27.990Z,15.80
2023-04-16T16:40:20.766Z,15.80
2023-04-16T16:41:29.964Z,15.80
2023-04-16T16:42:07.532Z,15.80
2023-04-16T16:42:51.311Z,15.80
2023-04-16T16:43:47.418Z,15.80
2023-04-16T16:44:26.405Z,15.80
2023-04-16T16:45:08.694Z,15.80
2023-04-16T16:45:47.173Z,15.80
2023-04-16T16:46:28.482Z,15.80
2023-04-16T16:47:09.578Z,15.80
2023-04-16T16:47:53.451Z,15.80
2023-04-16T16:48:27.890Z,15.80
2023-04-16T16:49:17.338Z,15.80
2023-04-16T16:49:54.493Z,15.80
2023-04-16T16:50:38.390Z,15.80
2023-04-16T16:51:14.061Z,14.90
2023-04-16T16:51:46.889Z,15.80
2023-04-16T16:52:21.430Z,15.80
2023-04-16T16:52:58.910Z,15.80
2023-04-16T16:53:30.691Z,15.80
2023-04-16T16:54:05.102Z,15.80
2023-04-16T16:54:45.853Z,15.80
2023-04-16T16:55:29.090Z,15.90
2023-04-16T16:56:00.821Z,16.00
2023-04-16T16:57:08.791Z,15.80
2023-04-16T16:57:58.951Z,15.70
2023-04-16T16:58:54.814Z,15.80
2023-04-16T16:59:41.797Z,15.80
2023-04-16T17:00:40.422Z,15.80
2023-04-16T17:01:51.397Z,15.80
2023-04-16T17:02:37.820Z,15.70
2023-04-16T17:03:43.336Z,15.70
2023-04-16T17:04:45.727Z,15.70
2023-04-16T17:05:23.525Z,15.80
2023-04-16T17:06:16.452Z,15.80
2023-04-16T17:07:15.091Z,15.70
2023-04-16T17:08:12.253Z,15.70
2023-04-16T17:08:49.626Z,15.70
2023-04-16T17:09:42.858Z,15.70
2023-04-16T17:10:35.931Z,15.70
2023-04-16T17:11:27.124Z,15.70
2023-04-16T17:13:40.280Z,15.70
2023-04-16T17:14:35.725Z,15.70
2023-04-16T17:15:37.687Z,15.70
2023-04-16T17:16:12.145Z,15.70
2023-04-16T17:16:49.752Z,15.70
2023-04-16T17:17:36.555Z,15.70
2023-04-16T17:18:11.120Z,15.70
2023-04-16T17:19:01.301Z,15.70
2023-04-16T17:19:54.177Z,15.70
2023-04-16T17:20:38.024Z,15.70
2023-04-16T17:21:18.769Z,15.60
2023-04-16T17:22:06.660Z,15.60
2023-04-16T17:22:44.164Z,15.60
2023-04-16T17:23:51.578Z,15.60
2023-04-16T17:24:47.305Z,15.60
2023-04-16T17:25:25.113Z,15.60
2023-04-16T17:26:02.868Z,15.60
2023-04-16T17:26:46.821Z,15.70
2023-04-16T17:27:45.386Z,15.60
2023-04-16T17:28:47.432Z,15.60
2023-04-16T17:29:25.860Z,15.60
2023-04-16T17:30:25.256Z,15.60
2023-04-16T17:31:14.355Z,15.60
2023-04-16T17:32:13.112Z,15.60
2023-04-16T17:33:32.696Z,15.60
2023-04-16T17:34:24.759Z,15.60
2023-04-16T17:35:14.464Z,15.60
2023-04-16T17:36:10.144Z,15.60
2023-04-16T17:37:17.973Z,15.60
2023-04-16T17:38:29.716Z,15.60
2023-04-16T17:39:49.526Z,15.60
2023-04-16T17:41:15.386Z,15.60
2023-04-16T17:44:12.373Z,15.50
2023-04-16T17:45:18.464Z,15.50
2023-04-16T17:47:46.602Z,15.50
2023-04-16T17:49:10.121Z,15.50
2023-04-16T17:50:52.335Z,15.50
2023-04-16T17:52:06.423Z,15.50
2023-04-16T17:55:04.025Z,15.50
2023-04-16T17:56:51.237Z,15.50
2023-04-16T17:57:44.692Z,15.50
2023-04-16T17:58:26.378Z,15.50
2023-04-16T17:59:27.751Z,15.40
2023-04-16T18:00:45.996Z,15.40
2023-04-16T18:01:47.746Z,15.40
2023-04-16T18:02:55.655Z,15.40
2023-04-16T18:04:13.253Z,15.40
2023-04-16T18:05:18.313Z,15.40
2023-04-16T18:06:21.384Z,12.50
2023-04-16T18:07:37.514Z,15.40
2023-04-16T18:08:20.691Z,15.40
2023-04-16T18:09:23.750Z,15.40
2023-04-16T18:10:57.844Z,15.60
2023-04-16T18:12:02.871Z,15.40
2023-04-16T18:13:32.839Z,15.40
2023-04-16T18:14:53.744Z,15.30
2023-04-16T18:16:12.501Z,15.30
2023-04-16T18:17:08.650Z,15.30
2023-04-16T18:18:19.529Z,15.30
2023-04-16T18:19:28.106Z,15.30
2023-04-16T18:22:20.047Z,15.30
2023-04-16T18:23:12.664Z,15.30
2023-04-16T18:24:15.847Z,15.30
2023-04-16T18:25:31.961Z,15.30
2023-04-16T18:26:47.764Z,15.30
2023-04-16T18:27:41.332Z,13.20
2023-04-16T18:28:46.242Z,15.50
2023-04-16T18:29:51.539Z,15.20
2023-04-16T18:31:05.382Z,15.20
2023-04-16T18:32:13.816Z,15.20
2023-04-16T18:33:44.503Z,15.10
2023-04-16T18:36:21.765Z,15.20
2023-04-16T18:38:46.343Z,15.20
2023-04-16T18:39:51.715Z,15.10
2023-04-16T18:40:44.520Z,15.20
2023-04-16T18:41:56.383Z,15.10
2023-04-16T18:43:01.614Z,15.10
2023-04-16T18:43:44.950Z,15.50
2023-04-16T18:44:47.181Z,15.10
2023-04-16T18:47:25.693Z,15.10
2023-04-16T18:48:31.006Z,15.10
2023-04-16T18:49:17.327Z,15.10
2023-04-16T20:28:27.241Z,14.10
2023-04-16T20:34:01.216Z,14.00
2023-04-16T20:35:18.263Z,14.00
2023-04-16T20:36:30.886Z,14.00